Aviation Digital Data Service (ADDS)

Output produced by METARs form (1444 UTC 27 November 2021)
found at http://aviationweather.gov/metar/data/
 
METAR text: KCVH 271435Z AUTO 00000KT 10SM CLR 04/01 A3016 RMK A01
Conditions at: KCVH (HOLLISTER MUNI , CA, US) observed 1435 UTC 27 November 2021
Temperature: 4.0°C (39°F)
Dewpoint: 1.0°C (34°F) [RH = 81%]
Pressure (altimeter): 30.16 inches Hg (1021.4 mb)
Winds: calm
Visibility: 10 or more miles (16+ km)
Ceiling: at least 12,000 feet AGL
Clouds: sky clear below 12,000 feet AGL
Weather: automated observation with no human augmentation;
there may or may not be significant weather present at this time